RYS3064 LGZA-EPKT
Flight info
| Callsign | RYS3064 |
|---|---|
| Flight time | N/A |
| Altitude | 24000 |
| Route | OSDES Y302 SOTEG/N0439F380 UY302 GARTA UV60 YNN UL604 DIMIS DCT ALELU DCT MODRA/N0441F390 DCT VAL/N0440F380 DCT PARAK DCT LITKU DCT REDSI/N0447F390 DCT MEBAN |
| Aircraft | B738/M-SDE3FGILRWY/SB1 |
Departure
| Time | 2026-04-29 21:06 |
|---|---|
| Airport | Zakynthos International Airport Dionysios Solomos (LGZA) |
Arrival
| Time | N/A |
|---|---|
| Airport | Katowice Wojciech Korfanty International Airport (EPKT) |
| Time | Latitude | Longitude | Altitude | Speed | Heading |
|---|---|---|---|---|---|
| 2026-04-29 20:35 | 37.75487 | 20.88491 | 20 ft | 0 kts | 73° |
| 2026-04-29 20:57 | 37.75485 | 20.88484 | 20 ft | 2 kts | 73° |
| 2026-04-29 20:58 | 37.75480 | 20.88460 | 17 ft | 3 kts | 75° |
| 2026-04-29 20:58 | 37.75476 | 20.88436 | 23 ft | 3 kts | 93° |
| 2026-04-29 20:58 | 37.75479 | 20.88417 | 22 ft | 3 kts | 146° |
| 2026-04-29 20:58 | 37.75483 | 20.88414 | 22 ft | 1 kts | 162° |
| 2026-04-29 20:59 | 37.75467 | 20.88412 | 24 ft | 3 kts | 193° |
| 2026-04-29 20:59 | 37.75448 | 20.88411 | 20 ft | 3 kts | 172° |
| 2026-04-29 20:59 | 37.75437 | 20.88415 | 18 ft | 0 kts | 163° |
| 2026-04-29 21:01 | 37.75433 | 20.88417 | 18 ft | 2 kts | 163° |
| 2026-04-29 21:01 | 37.75404 | 20.88429 | 20 ft | 7 kts | 162° |
| 2026-04-29 21:02 | 37.75341 | 20.88454 | 19 ft | 12 kts | 163° |
| 2026-04-29 21:02 | 37.75247 | 20.88488 | 19 ft | 16 kts | 164° |
| 2026-04-29 21:02 | 37.75140 | 20.88527 | 19 ft | 15 kts | 167° |
| 2026-04-29 21:02 | 37.75040 | 20.88470 | 20 ft | 18 kts | 202° |
| 2026-04-29 21:03 | 37.74914 | 20.88495 | 18 ft | 20 kts | 164° |
| 2026-04-29 21:03 | 37.74780 | 20.88544 | 20 ft | 21 kts | 163° |
| 2026-04-29 21:03 | 37.74635 | 20.88597 | 20 ft | 23 kts | 164° |
| 2026-04-29 21:03 | 37.74478 | 20.88656 | 20 ft | 24 kts | 163° |
| 2026-04-29 21:04 | 37.74338 | 20.88730 | 19 ft | 21 kts | 168° |
| 2026-04-29 21:04 | 37.74208 | 20.88789 | 20 ft | 20 kts | 143° |
| 2026-04-29 21:04 | 37.74157 | 20.88767 | 20 ft | 7 kts | 303° |
| 2026-04-29 21:04 | 37.74202 | 20.88759 | 20 ft | 7 kts | 347° |
| 2026-04-29 21:05 | 37.74211 | 20.88756 | 20 ft | 0 kts | 343° |
| 2026-04-29 21:05 | 37.74222 | 20.88752 | 20 ft | 15 kts | 343° |
| 2026-04-29 21:05 | 37.74598 | 20.88611 | 20 ft | 96 kts | 343° |
| 2026-04-29 21:05 | 37.75465 | 20.88288 | 37 ft | 160 kts | 344° |
| 2026-04-29 21:06 | 37.76647 | 20.87853 | 425 ft | 192 kts | 344° |
| 2026-04-29 21:06 | 37.77996 | 20.87363 | 1083 ft | 207 kts | 342° |
| 2026-04-29 21:06 | 37.79353 | 20.86824 | 1928 ft | 208 kts | 341° |
| 2026-04-29 21:06 | 37.80752 | 20.86265 | 2636 ft | 214 kts | 341° |
| 2026-04-29 21:07 | 37.82188 | 20.85698 | 3388 ft | 218 kts | 341° |
| 2026-04-29 21:07 | 37.83648 | 20.85125 | 4145 ft | 221 kts | 341° |
| 2026-04-29 21:07 | 37.84643 | 20.84737 | 4662 ft | 223 kts | 342° |
| 2026-04-29 21:07 | 37.86664 | 20.84105 | 5470 ft | 238 kts | 358° |
| 2026-04-29 21:08 | 37.88365 | 20.84481 | 5773 ft | 266 kts | 22° |
| 2026-04-29 21:08 | 37.90044 | 20.85585 | 6502 ft | 276 kts | 27° |
| 2026-04-29 21:08 | 37.91758 | 20.86711 | 7378 ft | 279 kts | 26° |
| 2026-04-29 21:08 | 37.92927 | 20.87478 | 7991 ft | 281 kts | 26° |
| 2026-04-29 21:09 | 37.94677 | 20.88629 | 8867 ft | 286 kts | 26° |
| 2026-04-29 21:09 | 37.96457 | 20.89789 | 9757 ft | 290 kts | 22° |
| 2026-04-29 21:09 | 37.98406 | 20.90419 | 10489 ft | 295 kts | 3° |
| 2026-04-29 21:09 | 38.00537 | 20.90576 | 10743 ft | 320 kts | 0° |
| 2026-04-29 21:10 | 38.02838 | 20.90666 | 11152 ft | 337 kts | 0° |
| 2026-04-29 21:10 | 38.05179 | 20.90754 | 11851 ft | 344 kts | 0° |
| 2026-04-29 21:10 | 38.07582 | 20.90859 | 12666 ft | 347 kts | 0° |
| 2026-04-29 21:10 | 38.10010 | 20.90980 | 13483 ft | 351 kts | 1° |
| 2026-04-29 21:11 | 38.12467 | 20.91112 | 14227 ft | 356 kts | 1° |
| 2026-04-29 21:11 | 38.14954 | 20.91251 | 14957 ft | 359 kts | 1° |
| 2026-04-29 21:11 | 38.17455 | 20.91372 | 15704 ft | 361 kts | 358° |
| 2026-04-29 21:11 | 38.19974 | 20.91273 | 16452 ft | 363 kts | 355° |
| 2026-04-29 21:12 | 38.22507 | 20.91042 | 17181 ft | 366 kts | 353° |
| 2026-04-29 21:12 | 38.25057 | 20.90768 | 17885 ft | 370 kts | 353° |
| 2026-04-29 21:12 | 38.27646 | 20.90487 | 18568 ft | 374 kts | 353° |
| 2026-04-29 21:12 | 38.30224 | 20.90215 | 19160 ft | 377 kts | 353° |
| 2026-04-29 21:13 | 38.32862 | 20.89948 | 19766 ft | 381 kts | 353° |
| 2026-04-29 21:13 | 38.35518 | 20.89689 | 20368 ft | 385 kts | 353° |
| 2026-04-29 21:13 | 38.38202 | 20.89435 | 20957 ft | 388 kts | 353° |
| 2026-04-29 21:13 | 38.40909 | 20.89182 | 21535 ft | 392 kts | 353° |
| 2026-04-29 21:14 | 38.43644 | 20.88930 | 22103 ft | 396 kts | 353° |
| 2026-04-29 21:14 | 38.46403 | 20.88677 | 22661 ft | 399 kts | 353° |
| 2026-04-29 21:14 | 38.49185 | 20.88422 | 23214 ft | 403 kts | 353° |
| 2026-04-29 21:14 | 38.51996 | 20.88165 | 23755 ft | 406 kts | 353° |
| 2026-04-29 21:15 | 38.54825 | 20.87907 | 24211 ft | 409 kts | 353° |
| 2026-04-29 21:15 | 38.57672 | 20.87646 | 24714 ft | 411 kts | 353° |
| 2026-04-29 21:15 | 38.60528 | 20.87386 | 25213 ft | 413 kts | 353° |
| 2026-04-29 21:15 | 38.63404 | 20.87122 | 25660 ft | 415 kts | 353° |
| 2026-04-29 21:16 | 38.66296 | 20.86857 | 26108 ft | 418 kts | 353° |
| 2026-04-29 21:16 | 38.69208 | 20.86589 | 26543 ft | 420 kts | 353° |
| 2026-04-29 21:16 | 38.72129 | 20.86321 | 26972 ft | 423 kts | 353° |
| 2026-04-29 21:16 | 38.75072 | 20.86050 | 27390 ft | 425 kts | 353° |
| 2026-04-29 21:17 | 38.77991 | 20.85781 | 27815 ft | 427 kts | 353° |
| 2026-04-29 21:17 | 38.80965 | 20.85507 | 28217 ft | 430 kts | 353° |
| 2026-04-29 21:17 | 38.83953 | 20.85231 | 28608 ft | 432 kts | 353° |
| 2026-04-29 21:17 | 38.86965 | 20.84953 | 29003 ft | 434 kts | 353° |
| 2026-04-29 21:18 | 38.89983 | 20.84674 | 29381 ft | 437 kts | 353° |
| 2026-04-29 21:18 | 38.93030 | 20.84393 | 29749 ft | 439 kts | 353° |
| 2026-04-29 21:18 | 38.96078 | 20.84111 | 30109 ft | 441 kts | 353° |
| 2026-04-29 21:18 | 38.99150 | 20.83826 | 30406 ft | 443 kts | 353° |
| 2026-04-29 21:19 | 39.02231 | 20.83540 | 30720 ft | 445 kts | 353° |
| 2026-04-29 21:19 | 39.05324 | 20.83254 | 31057 ft | 445 kts | 353° |
| 2026-04-29 21:19 | 39.08410 | 20.82968 | 31492 ft | 443 kts | 353° |
| 2026-04-29 21:19 | 39.11470 | 20.82685 | 31967 ft | 440 kts | 353° |
| 2026-04-29 21:20 | 39.14521 | 20.82402 | 32390 ft | 438 kts | 353° |
| 2026-04-29 21:20 | 39.17560 | 20.82120 | 32768 ft | 438 kts | 353° |
| 2026-04-29 21:20 | 39.20596 | 20.81836 | 33157 ft | 437 kts | 353° |
| 2026-04-29 21:20 | 39.23621 | 20.81554 | 33574 ft | 435 kts | 353° |
| 2026-04-29 21:21 | 39.26634 | 20.81273 | 33999 ft | 433 kts | 352° |
| 2026-04-29 21:21 | 39.29641 | 20.80992 | 34358 ft | 433 kts | 352° |
| 2026-04-29 21:21 | 39.32645 | 20.80711 | 34652 ft | 433 kts | 352° |
| 2026-04-29 21:21 | 39.35646 | 20.80430 | 34956 ft | 432 kts | 352° |
| 2026-04-29 21:22 | 39.38603 | 20.80152 | 35244 ft | 431 kts | 352° |
| 2026-04-29 21:22 | 39.41598 | 20.79870 | 35529 ft | 431 kts | 352° |
| 2026-04-29 21:22 | 39.44592 | 20.79590 | 35799 ft | 431 kts | 352° |
| 2026-04-29 21:22 | 39.47580 | 20.79309 | 36060 ft | 431 kts | 352° |
| 2026-04-29 21:23 | 39.50571 | 20.79028 | 36337 ft | 430 kts | 352° |
| 2026-04-29 21:23 | 39.53560 | 20.78748 | 36594 ft | 430 kts | 352° |
| 2026-04-29 21:23 | 39.56544 | 20.78466 | 36815 ft | 430 kts | 352° |
| 2026-04-29 21:23 | 39.59526 | 20.78185 | 37106 ft | 429 kts | 352° |
| 2026-04-29 21:24 | 39.62504 | 20.77904 | 37376 ft | 429 kts | 352° |
| 2026-04-29 21:24 | 39.65481 | 20.77623 | 37610 ft | 429 kts | 352° |
| 2026-04-29 21:24 | 39.68457 | 20.77342 | 37845 ft | 429 kts | 352° |
| 2026-04-29 21:24 | 39.71428 | 20.77061 | 38091 ft | 428 kts | 352° |
| 2026-04-29 21:25 | 39.74406 | 20.76778 | 38124 ft | 431 kts | 352° |
| 2026-04-29 21:25 | 39.80388 | 20.76210 | 38135 ft | 430 kts | 352° |
| 2026-04-29 21:26 | 39.86333 | 20.75648 | 38142 ft | 426 kts | 352° |
| 2026-04-29 21:26 | 39.92206 | 20.75099 | 38159 ft | 419 kts | 352° |
| 2026-04-29 21:27 | 39.98090 | 20.74534 | 38150 ft | 428 kts | 352° |
| 2026-04-29 21:27 | 40.04074 | 20.73955 | 38134 ft | 434 kts | 352° |
| 2026-04-29 21:28 | 40.10116 | 20.73375 | 38131 ft | 436 kts | 352° |
| 2026-04-29 21:28 | 40.16165 | 20.72797 | 38116 ft | 434 kts | 352° |
| 2026-04-29 21:29 | 40.22124 | 20.72231 | 38111 ft | 426 kts | 352° |
| 2026-04-29 21:29 | 40.28039 | 20.71662 | 38123 ft | 426 kts | 352° |
| 2026-04-29 21:30 | 40.33946 | 20.71091 | 38130 ft | 426 kts | 351° |
| 2026-04-29 21:30 | 40.39859 | 20.70520 | 38131 ft | 426 kts | 351° |
| 2026-04-29 21:31 | 40.45777 | 20.69948 | 38126 ft | 427 kts | 351° |
| 2026-04-29 21:31 | 40.51701 | 20.69374 | 38127 ft | 427 kts | 351° |
| 2026-04-29 21:32 | 40.57630 | 20.68799 | 38128 ft | 427 kts | 351° |
| 2026-04-29 21:32 | 40.63561 | 20.68223 | 38124 ft | 427 kts | 351° |
| 2026-04-29 21:33 | 40.69451 | 20.67650 | 38128 ft | 428 kts | 351° |
| 2026-04-29 21:33 | 40.75387 | 20.67071 | 38127 ft | 428 kts | 351° |
| 2026-04-29 21:34 | 40.81334 | 20.66490 | 38123 ft | 428 kts | 351° |
| 2026-04-29 21:34 | 40.87284 | 20.65907 | 38124 ft | 429 kts | 351° |
| 2026-04-29 21:35 | 40.93250 | 20.65323 | 38111 ft | 430 kts | 351° |
| 2026-04-29 21:35 | 40.99218 | 20.64737 | 38113 ft | 430 kts | 351° |
| 2026-04-29 21:36 | 41.05195 | 20.64149 | 38113 ft | 430 kts | 351° |
| 2026-04-29 21:36 | 41.11166 | 20.63561 | 38103 ft | 430 kts | 351° |
| 2026-04-29 21:37 | 41.17136 | 20.62972 | 38114 ft | 430 kts | 351° |
| 2026-04-29 21:37 | 41.23098 | 20.62383 | 38114 ft | 429 kts | 351° |
| 2026-04-29 21:38 | 41.29052 | 20.61793 | 38105 ft | 429 kts | 351° |
| 2026-04-29 21:38 | 41.35001 | 20.61201 | 38116 ft | 429 kts | 351° |
| 2026-04-29 21:39 | 41.40956 | 20.60609 | 38107 ft | 430 kts | 351° |
| 2026-04-29 21:39 | 41.46915 | 20.60015 | 38109 ft | 429 kts | 351° |
| 2026-04-29 21:40 | 41.52876 | 20.59420 | 38101 ft | 430 kts | 351° |
| 2026-04-29 21:40 | 41.58842 | 20.58824 | 38096 ft | 429 kts | 350° |
| 2026-04-29 21:41 | 41.64791 | 20.58228 | 38112 ft | 428 kts | 350° |
| 2026-04-29 21:41 | 41.70718 | 20.57634 | 38111 ft | 426 kts | 350° |
| 2026-04-29 21:42 | 41.76638 | 20.57038 | 38104 ft | 427 kts | 350° |
| 2026-04-29 21:42 | 41.81558 | 20.56542 | 38110 ft | 426 kts | 350° |
| 2026-04-29 21:43 | 41.88457 | 20.55847 | 38107 ft | 425 kts | 350° |
| 2026-04-29 21:43 | 41.94349 | 20.55250 | 38113 ft | 424 kts | 350° |
| 2026-04-29 21:44 | 42.00228 | 20.54654 | 38122 ft | 423 kts | 350° |
| 2026-04-29 21:44 | 42.06066 | 20.54062 | 38126 ft | 424 kts | 350° |
| 2026-04-29 21:45 | 42.11946 | 20.53463 | 38131 ft | 424 kts | 349° |
| 2026-04-29 21:45 | 42.17841 | 20.52862 | 38117 ft | 425 kts | 349° |
| 2026-04-29 21:46 | 42.23725 | 20.52262 | 38139 ft | 424 kts | 349° |
| 2026-04-29 21:46 | 42.29595 | 20.51663 | 38159 ft | 422 kts | 349° |
| 2026-04-29 21:47 | 42.35467 | 20.51060 | 38145 ft | 423 kts | 349° |
| 2026-04-29 21:47 | 42.41345 | 20.50456 | 38148 ft | 424 kts | 349° |
| 2026-04-29 21:48 | 42.47236 | 20.49850 | 38148 ft | 425 kts | 349° |
| 2026-04-29 21:48 | 42.53131 | 20.49243 | 38163 ft | 425 kts | 349° |
| 2026-04-29 21:49 | 42.59030 | 20.48634 | 38161 ft | 426 kts | 349° |
| 2026-04-29 21:49 | 42.64940 | 20.48023 | 38155 ft | 426 kts | 349° |
| 2026-04-29 21:50 | 42.70848 | 20.47411 | 38165 ft | 425 kts | 349° |
| 2026-04-29 21:50 | 42.76751 | 20.46798 | 38172 ft | 425 kts | 349° |
| 2026-04-29 21:51 | 42.82647 | 20.46185 | 38173 ft | 425 kts | 349° |
| 2026-04-29 21:51 | 42.91484 | 20.45264 | 38174 ft | 424 kts | 349° |
| 2026-04-29 21:52 | 42.97368 | 20.44649 | 38186 ft | 423 kts | 349° |
| 2026-04-29 21:52 | 43.03187 | 20.44039 | 38180 ft | 422 kts | 349° |
| 2026-04-29 21:53 | 43.09038 | 20.43426 | 38199 ft | 421 kts | 349° |
| 2026-04-29 21:53 | 43.14881 | 20.42812 | 38191 ft | 421 kts | 349° |
| 2026-04-29 21:54 | 43.20710 | 20.42198 | 38212 ft | 420 kts | 349° |
| 2026-04-29 21:54 | 43.25590 | 20.41683 | 38212 ft | 420 kts | 349° |
| 2026-04-29 21:55 | 43.31368 | 20.41073 | 38224 ft | 419 kts | 348° |
| 2026-04-29 21:55 | 43.37223 | 20.40452 | 38229 ft | 420 kts | 348° |
| 2026-04-29 21:56 | 43.43016 | 20.39836 | 38229 ft | 421 kts | 348° |
| 2026-04-29 21:56 | 43.48862 | 20.39214 | 38236 ft | 421 kts | 349° |
| 2026-04-29 21:57 | 43.54705 | 20.38593 | 38234 ft | 421 kts | 348° |
| 2026-04-29 21:57 | 43.60549 | 20.37969 | 38242 ft | 421 kts | 348° |
| 2026-04-29 21:58 | 43.66394 | 20.37344 | 38251 ft | 422 kts | 348° |
| 2026-04-29 21:58 | 43.72253 | 20.36716 | 38244 ft | 422 kts | 348° |
| 2026-04-29 21:59 | 43.78113 | 20.36088 | 38239 ft | 422 kts | 348° |
| 2026-04-29 21:59 | 43.83961 | 20.35459 | 38245 ft | 421 kts | 348° |
| 2026-04-29 22:00 | 43.89802 | 20.34830 | 38241 ft | 420 kts | 348° |
| 2026-04-29 22:00 | 43.95626 | 20.34202 | 38246 ft | 420 kts | 348° |
| 2026-04-29 22:01 | 44.01447 | 20.33572 | 38250 ft | 419 kts | 348° |
| 2026-04-29 22:01 | 44.07251 | 20.32943 | 38252 ft | 418 kts | 348° |
| 2026-04-29 22:02 | 44.13055 | 20.32311 | 38248 ft | 418 kts | 348° |
| 2026-04-29 22:02 | 44.18862 | 20.31679 | 38256 ft | 420 kts | 348° |
| 2026-04-29 22:03 | 44.24661 | 20.31045 | 38269 ft | 421 kts | 348° |
| 2026-04-29 22:03 | 44.30512 | 20.30405 | 38262 ft | 423 kts | 348° |
| 2026-04-29 22:04 | 44.36387 | 20.29762 | 38262 ft | 424 kts | 348° |
| 2026-04-29 22:04 | 44.42273 | 20.29117 | 38256 ft | 424 kts | 348° |
| 2026-04-29 22:05 | 44.48160 | 20.28471 | 38254 ft | 424 kts | 348° |
| 2026-04-29 22:06 | 44.56965 | 20.27503 | 38245 ft | 422 kts | 348° |
| 2026-04-29 22:06 | 44.62810 | 20.26858 | 38247 ft | 420 kts | 348° |
| 2026-04-29 22:07 | 44.68640 | 20.26212 | 38239 ft | 419 kts | 348° |
| 2026-04-29 22:07 | 44.74444 | 20.25568 | 38242 ft | 418 kts | 348° |
| 2026-04-29 22:08 | 44.80234 | 20.24925 | 38240 ft | 417 kts | 348° |
| 2026-04-29 22:08 | 44.86009 | 20.24281 | 38242 ft | 416 kts | 349° |
| 2026-04-29 22:09 | 44.91730 | 20.23642 | 38241 ft | 415 kts | 349° |
| 2026-04-29 22:09 | 44.97484 | 20.22998 | 38240 ft | 415 kts | 349° |
| 2026-04-29 22:10 | 45.03235 | 20.22354 | 38241 ft | 415 kts | 349° |
| 2026-04-29 22:10 | 45.08990 | 20.21707 | 38246 ft | 415 kts | 349° |
| 2026-04-29 22:11 | 45.14744 | 20.21059 | 38245 ft | 415 kts | 349° |
| 2026-04-29 22:11 | 45.20510 | 20.20409 | 38245 ft | 416 kts | 349° |
| 2026-04-29 22:12 | 45.26279 | 20.19757 | 38250 ft | 416 kts | 349° |
| 2026-04-29 22:12 | 45.32062 | 20.19103 | 38250 ft | 417 kts | 349° |
| 2026-04-29 22:13 | 45.37851 | 20.18446 | 38252 ft | 417 kts | 349° |
| 2026-04-29 22:13 | 45.43646 | 20.17787 | 38252 ft | 418 kts | 349° |
| 2026-04-29 22:14 | 45.49445 | 20.17127 | 38248 ft | 419 kts | 349° |
| 2026-04-29 22:14 | 45.55258 | 20.16464 | 38250 ft | 419 kts | 349° |
| 2026-04-29 22:15 | 45.61077 | 20.15798 | 38256 ft | 420 kts | 349° |
| 2026-04-29 22:15 | 45.66895 | 20.15131 | 38257 ft | 420 kts | 349° |
| 2026-04-29 22:16 | 45.72723 | 20.14462 | 38257 ft | 420 kts | 349° |
| 2026-04-29 22:16 | 45.78553 | 20.13791 | 38254 ft | 420 kts | 349° |
| 2026-04-29 22:17 | 45.84379 | 20.13120 | 38260 ft | 420 kts | 349° |
| 2026-04-29 22:17 | 45.90168 | 20.12450 | 38262 ft | 420 kts | 349° |
| 2026-04-29 22:18 | 45.96024 | 20.11772 | 38256 ft | 419 kts | 349° |
| 2026-04-29 22:18 | 46.01805 | 20.11101 | 38262 ft | 419 kts | 349° |
| 2026-04-29 22:19 | 46.07615 | 20.10425 | 38262 ft | 419 kts | 349° |
| 2026-04-29 22:19 | 46.13418 | 20.09749 | 38270 ft | 418 kts | 349° |
| 2026-04-29 22:20 | 46.19195 | 20.08879 | 38272 ft | 415 kts | 345° |
| 2026-04-29 22:20 | 46.24894 | 20.07554 | 38276 ft | 415 kts | 344° |
| 2026-04-29 22:21 | 46.30588 | 20.06169 | 38278 ft | 415 kts | 345° |
| 2026-04-29 22:21 | 46.36295 | 20.04812 | 38283 ft | 416 kts | 345° |
| 2026-04-29 22:22 | 46.42013 | 20.03475 | 38291 ft | 416 kts | 345° |
| 2026-04-29 22:22 | 46.47735 | 20.02143 | 38277 ft | 417 kts | 345° |
| 2026-04-29 22:23 | 46.53468 | 20.00807 | 38283 ft | 417 kts | 345° |
| 2026-04-29 22:23 | 46.59168 | 19.99476 | 38296 ft | 417 kts | 345° |
| 2026-04-29 22:24 | 46.64902 | 19.98133 | 38302 ft | 417 kts | 345° |
| 2026-04-29 22:24 | 46.70633 | 19.96788 | 38300 ft | 417 kts | 345° |
| 2026-04-29 22:25 | 46.76361 | 19.95441 | 38300 ft | 417 kts | 345° |
| 2026-04-29 22:25 | 46.82091 | 19.94091 | 38298 ft | 416 kts | 345° |
| 2026-04-29 22:26 | 46.87802 | 19.92742 | 38294 ft | 415 kts | 346° |
| 2026-04-29 22:26 | 46.93499 | 19.91394 | 38297 ft | 414 kts | 346° |
| 2026-04-29 22:27 | 46.99185 | 19.90045 | 38293 ft | 413 kts | 346° |
| 2026-04-29 22:27 | 47.04849 | 19.88699 | 38296 ft | 412 kts | 346° |
| 2026-04-29 22:28 | 47.10498 | 19.87352 | 38298 ft | 411 kts | 346° |
| 2026-04-29 22:28 | 47.16135 | 19.86006 | 38300 ft | 410 kts | 346° |
| 2026-04-29 22:29 | 47.20818 | 19.84886 | 38304 ft | 409 kts | 346° |
| 2026-04-29 22:29 | 47.27341 | 19.83322 | 38307 ft | 408 kts | 346° |
| 2026-04-29 22:30 | 47.32956 | 19.81973 | 38318 ft | 408 kts | 346° |
| 2026-04-29 22:30 | 47.38565 | 19.80621 | 38320 ft | 408 kts | 346° |
| 2026-04-29 22:31 | 47.44175 | 19.79267 | 38326 ft | 408 kts | 346° |
| 2026-04-29 22:31 | 47.49783 | 19.77910 | 38338 ft | 409 kts | 346° |
| 2026-04-29 22:32 | 47.55407 | 19.76547 | 38333 ft | 409 kts | 346° |
| 2026-04-29 22:32 | 47.61032 | 19.75180 | 38340 ft | 410 kts | 346° |
| 2026-04-29 22:33 | 47.66673 | 19.73807 | 38344 ft | 411 kts | 346° |
| 2026-04-29 22:33 | 47.72290 | 19.72437 | 38347 ft | 412 kts | 346° |
| 2026-04-29 22:34 | 47.77952 | 19.71052 | 38356 ft | 413 kts | 346° |
| 2026-04-29 22:34 | 47.83632 | 19.69660 | 38360 ft | 414 kts | 346° |
| 2026-04-29 22:35 | 47.89322 | 19.68262 | 38352 ft | 415 kts | 346° |
| 2026-04-29 22:35 | 47.95017 | 19.66861 | 38363 ft | 415 kts | 346° |
| 2026-04-29 22:36 | 48.00715 | 19.65455 | 38372 ft | 415 kts | 346° |
| 2026-04-29 22:36 | 48.06405 | 19.64048 | 38367 ft | 414 kts | 346° |
| 2026-04-29 22:37 | 48.12087 | 19.62640 | 38365 ft | 413 kts | 347° |
| 2026-04-29 22:37 | 48.17746 | 19.61234 | 38365 ft | 412 kts | 346° |
| 2026-04-29 22:38 | 48.23383 | 19.59817 | 38376 ft | 410 kts | 345° |
| 2026-04-29 22:38 | 48.28933 | 19.57992 | 38378 ft | 407 kts | 343° |
| 2026-04-29 22:39 | 48.34439 | 19.55990 | 37997 ft | 411 kts | 342° |
| 2026-04-29 22:39 | 48.37194 | 19.54992 | 37696 ft | 404 kts | 342° |
| 2026-04-29 22:39 | 48.39914 | 19.54016 | 37266 ft | 400 kts | 342° |
| 2026-04-29 22:39 | 48.41703 | 19.53378 | 37023 ft | 396 kts | 342° |
| 2026-04-29 22:40 | 48.44379 | 19.52427 | 36621 ft | 392 kts | 342° |
| 2026-04-29 22:40 | 48.47022 | 19.51490 | 36233 ft | 388 kts | 342° |
| 2026-04-29 22:40 | 48.50485 | 19.50263 | 35722 ft | 383 kts | 342° |
| 2026-04-29 22:40 | 48.53069 | 19.49347 | 35337 ft | 380 kts | 342° |
| 2026-04-29 22:41 | 48.54802 | 19.48732 | 35089 ft | 377 kts | 341° |
| 2026-04-29 22:41 | 48.57348 | 19.47829 | 34702 ft | 375 kts | 341° |
| 2026-04-29 22:41 | 48.59872 | 19.46932 | 34312 ft | 371 kts | 341° |
| 2026-04-29 22:41 | 48.62377 | 19.46040 | 33870 ft | 368 kts | 341° |
| 2026-04-29 22:42 | 48.64860 | 19.45156 | 33483 ft | 365 kts | 341° |
| 2026-04-29 22:42 | 48.67316 | 19.44280 | 33115 ft | 361 kts | 341° |
| 2026-04-29 22:42 | 48.69752 | 19.43411 | 32745 ft | 357 kts | 341° |
| 2026-04-29 22:42 | 48.72157 | 19.42552 | 32370 ft | 354 kts | 341° |
| 2026-04-29 22:43 | 48.74550 | 19.41695 | 32000 ft | 352 kts | 341° |
| 2026-04-29 22:43 | 48.76892 | 19.40856 | 31650 ft | 349 kts | 342° |
| 2026-04-29 22:43 | 48.79248 | 19.40012 | 31294 ft | 347 kts | 342° |
| 2026-04-29 22:43 | 48.81589 | 19.39172 | 30937 ft | 345 kts | 342° |
| 2026-04-29 22:44 | 48.83916 | 19.38336 | 30595 ft | 342 kts | 342° |
| 2026-04-29 22:44 | 48.86223 | 19.37507 | 30177 ft | 339 kts | 342° |
| 2026-04-29 22:44 | 48.88498 | 19.36690 | 29844 ft | 333 kts | 342° |
| 2026-04-29 22:44 | 48.90740 | 19.35883 | 29471 ft | 329 kts | 342° |
| 2026-04-29 22:45 | 48.92953 | 19.35086 | 29110 ft | 326 kts | 342° |
| 2026-04-29 22:45 | 48.95154 | 19.34292 | 28765 ft | 323 kts | 342° |
| 2026-04-29 22:45 | 48.97327 | 19.33507 | 28419 ft | 320 kts | 342° |
| 2026-04-29 22:45 | 48.99482 | 19.32728 | 28073 ft | 317 kts | 343° |
| 2026-04-29 22:46 | 49.01620 | 19.31954 | 27715 ft | 314 kts | 343° |
| 2026-04-29 22:46 | 49.03731 | 19.31190 | 27383 ft | 311 kts | 343° |
| 2026-04-29 22:46 | 49.05828 | 19.30430 | 27033 ft | 309 kts | 343° |
| 2026-04-29 22:46 | 49.07909 | 19.29675 | 26717 ft | 306 kts | 343° |
| 2026-04-29 22:47 | 49.09971 | 19.28927 | 26362 ft | 304 kts | 343° |
| 2026-04-29 22:47 | 49.12019 | 19.28183 | 26053 ft | 301 kts | 343° |
| 2026-04-29 22:47 | 49.14049 | 19.27445 | 25718 ft | 299 kts | 343° |
| 2026-04-29 22:47 | 49.16063 | 19.26712 | 25402 ft | 297 kts | 343° |
| 2026-04-29 22:48 | 49.18064 | 19.25983 | 25079 ft | 295 kts | 344° |
| 2026-04-29 22:48 | 49.20060 | 19.25256 | 24754 ft | 294 kts | 344° |
| 2026-04-29 22:48 | 49.22038 | 19.24534 | 24434 ft | 292 kts | 344° |
| 2026-04-29 22:48 | 49.24012 | 19.23813 | 24121 ft | 291 kts | 344° |